Time;durP1;ratioP1;P1;durP2;ratioP2;P2;SDS_P1;SDS_P2;PMS_P1;PMS_P2;Temp;Humidity;BMP_temperature;BMP_pressure;BME280_temperature;BME280_humidity;BME280_pressure;Samples;Min_cycle;Max_cycle;Signal;HPM_P1;HPM_P2
2022/01/10 00:01:31;;;;;;;37.17;19.23;;;4.90;81.60;;;;;;6203939;23;20161;-85
2022/01/10 00:03:57;;;;;;;28.67;16.93;;;4.80;81.50;;;;;;6193499;23;20149;-86
2022/01/10 00:06:22;;;;;;;34.70;17.03;;;4.80;81.60;;;;;;6192084;23;20185;-85
2022/01/10 00:08:48;;;;;;;36.23;16.60;;;4.70;82.00;;;;;;6219606;23;20146;-85
2022/01/10 00:11:14;;;;;;;38.47;15.80;;;4.60;82.30;;;;;;6220428;23;20577;-86
2022/01/10 00:13:39;;;;;;;40.50;15.70;;;4.60;82.50;;;;;;6208937;23;20163;-86
2022/01/10 00:16:05;;;;;;;34.90;17.13;;;4.60;82.70;;;;;;6203637;23;20265;-86
2022/01/10 00:18:30;;;;;;;49.77;18.10;;;4.60;82.80;;;;;;6219609;23;20150;-86
2022/01/10 00:20:56;;;;;;;33.80;15.77;;;4.40;83.00;;;;;;6196668;23;20177;-85
2022/01/10 00:23:22;;;;;;;29.87;15.43;;;4.40;83.40;;;;;;6203212;23;20165;-85
2022/01/10 00:25:47;;;;;;;30.80;15.90;;;4.60;83.50;;;;;;6193880;23;20208;-85
2022/01/10 00:28:13;;;;;;;45.47;16.27;;;4.70;82.90;;;;;;6220910;23;20149;-85
2022/01/10 00:30:39;;;;;;;37.60;16.43;;;4.80;82.00;;;;;;6221264;23;20173;-86
2022/01/10 00:33:04;;;;;;;31.00;14.40;;;4.80;81.60;;;;;;6193263;23;20168;-86
2022/01/10 00:35:30;;;;;;;31.63;17.37;;;4.70;81.70;;;;;;6203516;23;20153;-86
2022/01/10 00:37:56;;;;;;;36.57;18.20;;;4.60;81.90;;;;;;6199065;23;20376;-86
2022/01/10 00:40:22;;;;;;;32.67;16.77;;;4.50;83.00;;;;;;6196467;23;20389;-85
2022/01/10 00:42:54;;;;;;;33.00;15.10;;;4.60;82.50;;;;;;6193637;23;20158;-86
2022/01/10 00:45:26;;;;;;;27.15;15.25;;;4.70;82.20;;;;;;6191029;23;20176;-86
2022/01/10 00:47:54;;;;;;;42.45;15.75;;;4.80;81.30;;;;;;6167345;23;20361;-85
2022/01/10 00:50:26;;;;;;;26.73;15.50;;;4.80;80.90;;;;;;6192394;23;20643;-86
2022/01/10 00:52:53;;;;;;;35.00;14.98;;;4.80;80.80;;;;;;6192934;23;20223;-87
2022/01/10 00:55:19;;;;;;;34.15;15.30;;;4.70;80.80;;;;;;6219404;23;20161;-86
2022/01/10 00:57:45;;;;;;;29.50;15.25;;;4.50;81.30;;;;;;6193901;23;20211;-86
2022/01/10 01:00:13;;;;;;;31.27;15.60;;;4.40;81.80;;;;;;6196905;23;20176;-87
2022/01/10 01:02:39;;;;;;;25.65;13.20;;;4.40;82.20;;;;;;6199915;23;20446;-86
2022/01/10 01:05:08;;;;;;;37.55;16.20;;;4.50;82.50;;;;;;6196119;23;20161;-86
2022/01/10 01:07:35;;;;;;;34.20;14.93;;;4.70;82.20;;;;;;6193338;23;20193;-86
2022/01/10 01:10:21;;;;;;;42.13;15.10;;;4.50;81.20;;;;;;6195978;23;20181;-88
2022/01/10 01:12:59;;;;;;;31.23;14.90;;;4.50;81.10;;;;;;6208374;23;20146;-87
2022/01/10 01:15:45;;;;;;;32.35;15.40;;;4.50;81.20;;;;;;6206855;23;20146;-87
2022/01/10 01:18:19;;;;;;;27.15;12.77;;;4.50;81.20;;;;;;6197871;23;20228;-86
2022/01/10 01:24:00;;;;;;;32.20;14.98;;;4.50;81.10;;;;;;6191952;23;20153;-86
2022/01/10 01:26:15;;;;;;;35.35;15.50;;;4.40;81.60;;;;;;6218882;23;20212;-86
2022/01/10 01:28:41;;;;;;;26.10;15.20;;;4.10;82.00;;;;;;6191326;23;20156;-86
2022/01/10 01:31:07;;;;;;;33.70;14.85;;;4.00;82.60;;;;;;6191633;23;20191;-87
2022/01/10 01:33:32;;;;;;;32.43;16.73;;;3.90;83.20;;;;;;6191257;23;20153;-86
2022/01/10 01:36:11;;;;;;;33.03;17.57;;;3.90;83.50;;;;;;6191770;23;20190;-85
2022/01/10 01:38:38;;;;;;;36.78;16.90;;;4.00;83.90;;;;;;6192169;23;20149;-86
2022/01/10 01:41:21;;;;;;;30.55;18.15;;;4.00;83.90;;;;;;6192174;23;20612;-86
2022/01/10 01:43:48;;;;;;;45.90;16.67;;;4.00;84.00;;;;;;6191181;23;20200;-86
2022/01/10 01:46:14;;;;;;;34.25;16.10;;;3.90;84.20;;;;;;6190932;23;20189;-86
2022/01/10 01:48:40;;;;;;;41.10;17.73;;;4.00;84.20;;;;;;6191468;23;20553;-86
2022/01/10 01:51:06;;;;;;;29.20;15.20;;;4.10;84.60;;;;;;6192824;23;20180;-86
2022/01/10 01:53:32;;;;;;;38.83;16.97;;;4.30;84.00;;;;;;6200248;23;20184;-87
2022/01/10 01:55:59;;;;;;;22.67;14.50;;;4.40;83.40;;;;;;6205278;23;20456;-86
2022/01/10 01:58:26;;;;;;;32.72;16.75;;;4.30;83.00;;;;;;6193688;23;20592;-86
2022/01/10 02:00:53;;;;;;;31.73;17.10;;;4.10;83.00;;;;;;6195271;23;20212;-86
2022/01/10 02:03:19;;;;;;;33.47;16.10;;;3.90;83.40;;;;;;6205794;23;20185;-86
2022/01/10 02:05:45;;;;;;;41.67;18.67;;;4.10;83.70;;;;;;6200892;23;20184;-86
2022/01/10 02:08:11;;;;;;;34.23;15.87;;;4.30;83.30;;;;;;6204509;23;20157;-85
2022/01/10 02:10:37;;;;;;;38.33;18.02;;;4.30;82.80;;;;;;6199975;23;20263;-86
2022/01/10 02:13:03;;;;;;;27.45;16.98;;;4.10;82.90;;;;;;6191152;23;20157;-87
2022/01/10 02:15:35;;;;;;;32.05;15.90;;;4.10;83.00;;;;;;6190996;23;20177;-86
2022/01/10 02:18:02;;;;;;;31.25;17.50;;;4.10;83.20;;;;;;6192817;23;20152;-86
2022/01/10 02:20:32;;;;;;;34.45;16.08;;;4.20;83.00;;;;;;6197761;23;20164;-86
2022/01/10 02:22:58;;;;;;;35.50;16.15;;;4.40;82.60;;;;;;6191278;23;20149;-86
2022/01/10 02:25:24;;;;;;;28.95;14.32;;;4.30;82.20;;;;;;6218835;23;20149;-86
2022/01/10 02:27:51;;;;;;;29.85;16.02;;;4.20;82.20;;;;;;6194146;23;20176;-86
2022/01/10 02:30:16;;;;;;;41.08;17.75;;;4.30;82.20;;;;;;6192126;23;20181;-86
2022/01/10 02:32:42;;;;;;;36.70;15.70;;;4.40;81.80;;;;;;6224806;23;20160;-86
2022/01/10 02:35:43;;;;;;;33.77;15.67;;;4.40;81.40;;;;;;6223971;23;20146;-87
2022/01/10 02:38:09;;;;;;;34.80;14.63;;;4.40;81.10;;;;;;6191874;23;20380;-86
2022/01/10 02:40:34;;;;;;;34.78;16.73;;;4.30;81.10;;;;;;6191961;23;20543;-86
2022/01/10 02:43:01;;;;;;;31.17;16.03;;;4.30;81.00;;;;;;6191789;23;20157;-86
2022/01/10 02:45:27;;;;;;;32.28;16.13;;;4.30;80.80;;;;;;6192900;23;20854;-86
2022/01/10 02:47:53;;;;;;;29.77;16.93;;;4.20;80.70;;;;;;6190612;23;20164;-86
2022/01/10 02:50:21;;;;;;;26.05;16.52;;;4.10;81.10;;;;;;6190795;23;20424;-86
2022/01/10 02:52:46;;;;;;;44.13;18.77;;;3.90;81.50;;;;;;6217091;23;20204;-86
2022/01/10 02:55:14;;;;;;;34.20;18.77;;;3.50;82.20;;;;;;6191846;23;20153;-86
2022/01/10 02:57:40;;;;;;;41.17;19.80;;;3.40;82.90;;;;;;6219189;23;20219;-86
2022/01/10 03:00:16;;;;;;;35.55;18.30;;;3.40;83.60;;;;;;6192448;23;20157;-86
2022/01/10 03:02:44;;;;;;;31.40;18.17;;;3.80;83.80;;;;;;6218878;23;20149;-86
2022/01/10 03:05:10;;;;;;;34.13;17.25;;;3.90;83.40;;;;;;6219146;23;20160;-86
2022/01/10 03:07:37;;;;;;;40.40;20.23;;;3.90;83.20;;;;;;6192468;23;20189;-86
2022/01/10 03:10:04;;;;;;;35.55;18.85;;;3.90;83.20;;;;;;6192439;23;20245;-86
2022/01/10 03:12:31;;;;;;;30.33;18.30;;;3.90;83.20;;;;;;6192725;23;20154;-86
2022/01/10 03:15:01;;;;;;;46.58;20.35;;;3.80;83.20;;;;;;6193297;23;20272;-86
2022/01/10 03:17:26;;;;;;;34.10;18.17;;;3.70;83.50;;;;;;6192651;23;20216;-86
2022/01/10 03:19:53;;;;;;;38.90;19.13;;;3.70;83.80;;;;;;6193063;23;20157;-86
2022/01/10 03:22:18;;;;;;;39.05;20.10;;;3.70;84.20;;;;;;6220271;23;20372;-86
2022/01/10 03:24:44;;;;;;;51.80;19.80;;;3.90;84.50;;;;;;6191621;23;20168;-86
2022/01/10 03:27:10;;;;;;;40.50;18.80;;;4.20;84.00;;;;;;6193688;23;20519;-85
2022/01/10 03:29:36;;;;;;;30.00;17.67;;;4.20;83.40;;;;;;6194128;23;20428;-86
2022/01/10 03:32:02;;;;;;;35.10;18.42;;;4.30;82.80;;;;;;6193204;23;20376;-86
2022/01/10 03:34:28;;;;;;;34.87;19.40;;;4.10;82.70;;;;;;6192812;23;20181;-85
2022/01/10 03:36:55;;;;;;;33.28;16.83;;;4.30;83.00;;;;;;6201890;23;20451;-86
2022/01/10 03:39:21;;;;;;;41.17;18.90;;;4.50;82.50;;;;;;6229003;23;20149;-86
2022/01/10 03:41:47;;;;;;;41.40;19.05;;;4.50;81.60;;;;;;6200310;23;20153;-86
2022/01/10 03:44:13;;;;;;;41.37;17.60;;;4.60;81.30;;;;;;6219458;23;20184;-86
2022/01/10 03:46:38;;;;;;;36.83;20.50;;;4.50;81.20;;;;;;6192851;23;20660;-87
2022/01/10 03:49:05;;;;;;;33.03;16.90;;;4.50;80.70;;;;;;6231161;23;20372;-87
2022/01/10 03:51:31;;;;;;;30.73;18.10;;;4.30;80.80;;;;;;6200410;23;20161;-86
2022/01/10 03:53:56;;;;;;;39.50;19.00;;;4.30;81.00;;;;;;6192174;23;20216;-86
2022/01/10 03:56:25;;;;;;;35.73;17.60;;;4.40;81.20;;;;;;6192540;23;20199;-86
2022/01/10 03:58:51;;;;;;;32.00;18.80;;;4.20;81.40;;;;;;6192461;23;20193;-86
2022/01/10 04:01:16;;;;;;;38.47;17.63;;;4.10;82.30;;;;;;6198132;23;20158;-87
2022/01/10 04:03:42;;;;;;;34.03;17.53;;;4.10;83.00;;;;;;6239325;23;20167;-87
2022/01/10 04:06:09;;;;;;;33.43;18.83;;;4.10;82.70;;;;;;6193484;23;20421;-86
2022/01/10 04:08:35;;;;;;;63.15;19.80;;;4.20;82.70;;;;;;6221416;23;20821;-85
2022/01/10 04:11:02;;;;;;;37.03;17.05;;;4.40;83.00;;;;;;6193802;23;20185;-85
2022/01/10 04:13:28;;;;;;;33.90;18.25;;;4.50;82.80;;;;;;6192979;23;20157;-85
2022/01/10 04:15:54;;;;;;;35.00;17.33;;;4.50;82.20;;;;;;6194347;23;20563;-85
2022/01/10 04:18:20;;;;;;;36.13;19.13;;;4.50;82.00;;;;;;6228475;23;20439;-85
2022/01/10 04:20:46;;;;;;;29.17;17.35;;;4.40;81.90;;;;;;6193043;23;20161;-85
2022/01/10 04:23:14;;;;;;;33.00;16.70;;;4.30;82.20;;;;;;6192437;23;20177;-85
2022/01/10 04:25:40;;;;;;;42.83;19.63;;;4.00;82.50;;;;;;6193033;23;20177;-85
2022/01/10 04:28:06;;;;;;;37.72;17.48;;;3.90;83.30;;;;;;6194564;23;20153;-85
2022/01/10 04:30:32;;;;;;;43.35;17.13;;;4.10;84.50;;;;;;6196960;23;20205;-85
2022/01/10 04:33:00;;;;;;;35.13;18.55;;;4.30;83.80;;;;;;6200716;23;20157;-85
2022/01/10 04:35:36;;;;;;;35.78;18.48;;;4.10;84.00;;;;;;6195069;23;20153;-85
2022/01/10 04:38:02;;;;;;;36.20;18.42;;;4.40;84.10;;;;;;6201862;23;20232;-85
2022/01/10 04:40:28;;;;;;;35.60;17.77;;;4.50;83.40;;;;;;6199909;23;20164;-85
2022/01/10 04:42:54;;;;;;;34.87;18.83;;;4.50;83.00;;;;;;6219541;23;20172;-85
2022/01/10 04:45:20;;;;;;;28.05;17.75;;;4.40;82.60;;;;;;6193222;23;20381;-85
2022/01/10 04:47:45;;;;;;;33.27;16.80;;;4.20;82.50;;;;;;6220661;23;20168;-85
2022/01/10 04:52:48;;;;;;;33.50;17.05;;;4.40;82.80;;;;;;6229503;23;20144;-85
2022/01/10 04:55:14;;;;;;;42.00;19.27;;;4.50;83.10;;;;;;6219402;23;20228;-85
2022/01/10 04:57:41;;;;;;;56.28;24.65;;;4.60;82.70;;;;;;6194314;23;20692;-85
2022/01/10 05:00:12;;;;;;;49.47;21.63;;;4.50;82.00;;;;;;6192220;23;20696;-85
2022/01/10 05:02:41;;;;;;;28.30;15.40;;;4.60;81.90;;;;;;6192746;23;20162;-85
2022/01/10 05:05:07;;;;;;;37.60;19.40;;;4.60;81.90;;;;;;6194703;23;20161;-85
2022/01/10 05:07:32;;;;;;;30.30;17.90;;;4.70;82.00;;;;;;6198184;23;20584;-86
2022/01/10 05:09:58;;;;;;;38.53;19.33;;;4.80;81.70;;;;;;6221900;23;20204;-86
2022/01/10 05:12:27;;;;;;;35.43;18.13;;;4.70;81.30;;;;;;6195665;23;20501;-88
2022/01/10 05:14:53;;;;;;;30.23;16.83;;;4.50;81.20;;;;;;6223761;23;20361;-86
2022/01/10 05:17:21;;;;;;;31.47;17.10;;;4.40;81.40;;;;;;6197467;23;20173;-86
2022/01/10 05:19:46;;;;;;;30.42;17.90;;;4.40;81.60;;;;;;6199929;23;20395;-86
2022/01/10 05:22:12;;;;;;;34.77;18.63;;;4.50;81.70;;;;;;6201351;23;20165;-85
2022/01/10 05:24:38;;;;;;;41.47;18.20;;;4.50;81.70;;;;;;6204066;23;20180;-85
2022/01/10 05:27:04;;;;;;;38.23;16.73;;;4.50;81.70;;;;;;6201912;23;20184;-86
2022/01/10 05:29:30;;;;;;;26.10;16.77;;;4.60;81.90;;;;;;6193709;23;20447;-86
2022/01/10 05:31:56;;;;;;;34.33;17.50;;;4.40;81.20;;;;;;6195080;23;20161;-86
2022/01/10 05:34:22;;;;;;;37.78;17.50;;;4.00;81.40;;;;;;6220062;23;20160;-86
2022/01/10 05:36:48;;;;;;;32.70;17.38;;;3.70;82.10;;;;;;6192588;23;20169;-87
2022/01/10 05:39:14;;;;;;;27.97;17.97;;;3.80;82.70;;;;;;6192990;23;20196;-87
2022/01/10 05:41:40;;;;;;;33.55;17.38;;;4.00;83.00;;;;;;6194317;23;20156;-85
2022/01/10 05:44:05;;;;;;;34.33;15.80;;;4.20;83.00;;;;;;6230290;23;20160;-86
2022/01/10 05:46:34;;;;;;;29.40;17.97;;;4.30;82.60;;;;;;6200218;23;20184;-86
2022/01/10 05:49:02;;;;;;;34.13;16.88;;;4.20;82.10;;;;;;6218518;23;20377;-86
2022/01/10 05:51:32;;;;;;;32.20;17.45;;;4.30;82.10;;;;;;6192291;23;20185;-86
2022/01/10 05:53:59;;;;;;;29.20;15.90;;;4.10;81.70;;;;;;6219983;23;20130;-86
2022/01/10 05:56:24;;;;;;;22.65;15.00;;;3.70;82.10;;;;;;6200556;23;20214;-87
2022/01/10 05:58:50;;;;;;;31.80;14.87;;;3.70;82.90;;;;;;6239003;23;20145;-87
2022/01/10 06:01:16;;;;;;;28.93;16.23;;;3.60;83.20;;;;;;6195330;23;20208;-88
2022/01/10 06:03:42;;;;;;;38.97;15.97;;;3.70;83.60;;;;;;6192132;23;20652;-86
2022/01/10 06:06:07;;;;;;;28.30;17.40;;;3.60;83.80;;;;;;6218281;23;20546;-86
2022/01/10 06:08:33;;;;;;;32.00;17.40;;;3.50;84.20;;;;;;6191923;23;20157;-85
2022/01/10 06:10:59;;;;;;;29.67;17.50;;;3.60;84.40;;;;;;6219426;23;20173;-86
2022/01/10 06:13:25;;;;;;;29.73;17.00;;;3.60;84.40;;;;;;6192499;23;20380;-86
2022/01/10 06:15:51;;;;;;;32.20;16.80;;;3.50;84.50;;;;;;6206102;23;20157;-86
2022/01/10 06:18:17;;;;;;;28.85;16.25;;;3.60;84.70;;;;;;6194995;23;20232;-88
2022/01/10 06:20:51;;;;;;;28.65;16.75;;;3.70;84.80;;;;;;6192265;23;20157;-87
2022/01/10 06:23:17;;;;;;;34.17;18.55;;;3.90;84.60;;;;;;6193490;23;20157;-88
2022/01/10 06:25:43;;;;;;;37.08;16.20;;;3.80;84.10;;;;;;6193339;23;20200;-87
2022/01/10 06:28:09;;;;;;;30.13;17.50;;;4.00;84.00;;;;;;6222866;23;20160;-88
2022/01/10 06:30:35;;;;;;;29.83;16.83;;;4.00;83.90;;;;;;6213186;23;20191;-88
2022/01/10 06:33:01;;;;;;;37.20;19.42;;;4.20;83.80;;;;;;6194463;23;20376;-88
2022/01/10 06:35:50;;;;;;;44.37;23.33;;;4.20;83.60;;;;;;6224034;23;20150;-88
2022/01/10 06:38:16;;;;;;;41.05;22.02;;;4.20;83.20;;;;;;6195842;23;20369;-90
2022/01/10 06:40:42;;;;;;;27.10;14.83;;;4.30;83.20;;;;;;6194343;23;20223;-90
2022/01/10 06:43:07;;;;;;;31.47;17.47;;;4.20;82.90;;;;;;6193849;23;20165;-89
2022/01/10 06:45:34;;;;;;;39.17;18.47;;;4.10;82.90;;;;;;6193068;23;20155;-90
2022/01/10 06:48:00;;;;;;;32.85;17.55;;;4.20;83.00;;;;;;6193227;23;20180;-90
2022/01/10 06:50:26;;;;;;;43.00;19.33;;;4.30;82.90;;;;;;6193579;23;20181;-90
2022/01/10 06:52:54;;;;;;;50.50;18.77;;;4.30;82.80;;;;;;6192954;23;20164;-90
2022/01/10 06:55:20;;;;;;;34.58;17.52;;;4.30;82.80;;;;;;6193364;23;20161;-90
2022/01/10 06:57:45;;;;;;;32.95;16.85;;;4.30;82.70;;;;;;6193592;23;20164;-90
2022/01/10 07:00:12;;;;;;;41.87;16.90;;;4.30;82.50;;;;;;6194275;23;20185;-90
2022/01/10 07:02:37;;;;;;;36.25;17.58;;;4.40;82.40;;;;;;6193390;23;20212;-90
2022/01/10 07:05:03;;;;;;;33.87;17.17;;;4.30;82.20;;;;;;6193469;23;20161;-90
2022/01/10 07:07:29;;;;;;;37.97;17.80;;;4.30;82.20;;;;;;6193679;23;20691;-88
2022/01/10 07:09:55;;;;;;;32.80;16.83;;;4.30;82.20;;;;;;6193512;23;20634;-89
2022/01/10 07:12:24;;;;;;;30.63;16.70;;;3.90;82.20;;;;;;6193430;23;20181;-90
2022/01/10 07:14:49;;;;;;;25.42;17.30;;;3.80;82.70;;;;;;6193819;23;20219;-90
2022/01/10 07:17:15;;;;;;;41.80;19.07;;;4.00;83.10;;;;;;6193634;23;20615;-90
2022/01/10 07:19:41;;;;;;;30.20;17.37;;;3.80;83.10;;;;;;6193738;23;20185;-89
2022/01/10 07:22:07;;;;;;;51.33;18.33;;;3.80;83.40;;;;;;6193159;23;20711;-89
2022/01/10 07:24:32;;;;;;;34.80;17.70;;;4.00;83.60;;;;;;6194646;23;20410;-89
2022/01/10 07:26:58;;;;;;;39.30;18.23;;;4.10;83.50;;;;;;6219564;23;20233;-89
2022/01/10 07:29:24;;;;;;;28.07;17.73;;;4.20;83.10;;;;;;6193270;23;20161;-90
2022/01/10 07:31:49;;;;;;;31.37;17.20;;;4.30;82.80;;;;;;6193846;23;20380;-89
2022/01/10 07:34:15;;;;;;;32.57;17.37;;;4.30;82.70;;;;;;6194114;23;20153;-90
2022/01/10 07:36:42;;;;;;;37.77;16.60;;;4.40;82.60;;;;;;6201237;23;20196;-90
2022/01/10 07:39:10;;;;;;;32.67;18.70;;;4.30;81.90;;;;;;6239370;23;20373;-90
2022/01/10 07:41:36;;;;;;;32.92;16.20;;;4.40;81.50;;;;;;6195440;23;20236;-89
2022/01/10 07:44:02;;;;;;;31.20;16.07;;;4.10;81.20;;;;;;6191576;23;20208;-89
2022/01/10 07:46:28;;;;;;;36.70;16.90;;;4.00;81.70;;;;;;6192274;23;20192;-90
2022/01/10 07:48:54;;;;;;;42.47;17.00;;;3.90;82.10;;;;;;6193155;23;20153;-89
2022/01/10 07:51:21;;;;;;;26.35;15.65;;;3.90;82.60;;;;;;6205980;23;20181;-91
2022/01/10 07:53:47;;;;;;;35.35;16.27;;;4.00;83.00;;;;;;6209182;23;20153;-89
2022/01/10 07:56:13;;;;;;;37.10;19.07;;;3.80;82.60;;;;;;6198840;23;20260;-90
2022/01/10 07:58:39;;;;;;;28.30;15.80;;;3.90;83.10;;;;;;6193958;23;20588;-90
2022/01/10 08:01:05;;;;;;;43.63;17.33;;;4.00;83.00;;;;;;6220489;23;20369;-89
2022/01/10 08:03:31;;;;;;;35.53;17.75;;;4.00;83.10;;;;;;6225457;23;20169;-89
2022/01/10 08:05:58;;;;;;;30.13;16.80;;;4.10;82.80;;;;;;6204244;23;20195;-89
2022/01/10 08:08:23;;;;;;;36.00;16.73;;;3.90;82.60;;;;;;6203525;23;20158;-90
2022/01/10 08:10:49;;;;;;;43.60;16.73;;;3.90;83.00;;;;;;6199527;23;20185;-90
2022/01/10 08:13:14;;;;;;;41.50;17.83;;;4.10;83.30;;;;;;6200863;23;20157;-90
2022/01/10 08:15:40;;;;;;;36.83;19.67;;;4.00;83.40;;;;;;6198670;23;20197;-90
2022/01/10 08:18:07;;;;;;;58.23;21.37;;;4.10;83.10;;;;;;6196919;23;20183;-90
2022/01/10 08:20:33;;;;;;;34.88;18.25;;;4.20;82.80;;;;;;6195473;23;20161;-89
2022/01/10 08:22:59;;;;;;;35.38;16.98;;;3.90;82.60;;;;;;6196007;23;20248;-89
2022/01/10 08:25:25;;;;;;;33.43;16.87;;;3.80;83.10;;;;;;6210780;23;20153;-91
2022/01/10 08:27:51;;;;;;;24.98;15.00;;;4.00;83.40;;;;;;6200944;23;20435;-90
2022/01/10 08:30:17;;;;;;;30.20;17.50;;;4.20;83.40;;;;;;6193234;23;20280;-90
2022/01/10 08:32:44;;;;;;;38.60;19.40;;;4.10;82.80;;;;;;6192451;23;20437;-89
2022/01/10 08:35:10;;;;;;;28.08;18.40;;;4.20;82.60;;;;;;6192205;23;20158;-90
2022/01/10 08:37:36;;;;;;;43.25;18.50;;;4.20;82.50;;;;;;6192438;23;20180;-91
2022/01/10 08:40:03;;;;;;;43.35;17.75;;;4.00;82.30;;;;;;6192868;23;20226;-90
2022/01/10 08:42:29;;;;;;;40.63;17.63;;;4.00;82.50;;;;;;6193093;23;20168;-88
2022/01/10 08:44:55;;;;;;;49.10;18.70;;;4.10;82.60;;;;;;6193331;23;20165;-89
2022/01/10 08:47:21;;;;;;;34.43;17.77;;;4.10;82.30;;;;;;6193171;23;20938;-90
2022/01/10 08:49:47;;;;;;;40.17;17.58;;;4.10;82.30;;;;;;6191822;23;20455;-89
2022/01/10 08:52:15;;;;;;;27.23;15.90;;;4.10;82.20;;;;;;6193711;23;20635;-90
2022/01/10 08:54:41;;;;;;;38.40;18.58;;;4.10;82.00;;;;;;6193529;23;20154;-89
2022/01/10 08:57:07;;;;;;;32.33;17.30;;;4.10;82.10;;;;;;6192580;23;20180;-89
2022/01/10 08:59:33;;;;;;;38.47;18.13;;;4.20;82.00;;;;;;6191162;23;20396;-90
2022/01/10 09:01:59;;;;;;;32.47;16.50;;;4.20;81.90;;;;;;6191482;23;20416;-89
2022/01/10 09:04:26;;;;;;;31.77;18.60;;;4.40;81.90;;;;;;6191901;23;20168;-90
2022/01/10 09:06:54;;;;;;;35.35;16.42;;;4.40;81.70;;;;;;6191714;23;20193;-90
2022/01/10 09:09:21;;;;;;;31.30;14.73;;;4.20;81.50;;;;;;6191292;23;20167;-90
2022/01/10 09:11:48;;;;;;;41.22;17.98;;;4.20;81.60;;;;;;6192170;23;20153;-89
2022/01/10 09:14:14;;;;;;;36.13;17.05;;;4.30;81.70;;;;;;6191247;23;20550;-90
2022/01/10 09:16:41;;;;;;;30.13;17.58;;;4.50;81.40;;;;;;6191725;23;20586;-89
2022/01/10 09:19:07;;;;;;;31.63;15.60;;;4.40;81.00;;;;;;6192232;23;20160;-89
2022/01/10 09:21:33;;;;;;;27.95;15.88;;;4.30;80.70;;;;;;6191885;23;20150;-89
2022/01/10 09:23:59;;;;;;;27.17;16.02;;;4.00;81.00;;;;;;6192927;23;20196;-89
2022/01/10 09:26:25;;;;;;;35.30;16.85;;;4.10;81.80;;;;;;6193633;23;20184;-90
2022/01/10 09:28:52;;;;;;;28.42;16.08;;;4.20;82.10;;;;;;6197764;23;20164;-90
2022/01/10 09:31:17;;;;;;;30.67;17.85;;;4.30;82.00;;;;;;6207048;23;20188;-90
2022/01/10 09:33:47;;;;;;;32.30;17.80;;;4.10;81.80;;;;;;6208518;23;20157;-89
2022/01/10 09:36:13;;;;;;;36.00;16.90;;;4.00;82.00;;;;;;6206277;23;20586;-88
2022/01/10 09:38:39;;;;;;;35.77;17.00;;;4.00;82.30;;;;;;6192712;23;20157;-89
2022/01/10 09:41:04;;;;;;;35.00;17.80;;;4.00;82.70;;;;;;6218726;23;20209;-89
2022/01/10 09:43:31;;;;;;;38.60;18.40;;;4.00;82.80;;;;;;6197815;23;20157;-92
2022/01/10 09:45:56;;;;;;;29.52;16.88;;;3.90;82.80;;;;;;6211988;23;20181;-90
2022/01/10 09:48:23;;;;;;;29.77;16.50;;;3.90;83.10;;;;;;6197293;23;20161;-88
2022/01/10 09:50:49;;;;;;;36.45;16.00;;;4.00;83.20;;;;;;6192689;23;20929;-91
2022/01/10 09:53:17;;;;;;;29.02;16.38;;;4.10;83.10;;;;;;6190792;23;20230;-90
2022/01/10 09:55:43;;;;;;;33.70;17.42;;;4.10;83.00;;;;;;6191583;23;20184;-90
2022/01/10 09:58:09;;;;;;;35.67;17.10;;;4.00;82.90;;;;;;6218109;23;20204;-90
2022/01/10 10:00:35;;;;;;;31.30;17.33;;;4.00;82.80;;;;;;6191318;23;20177;-90
2022/01/10 10:03:01;;;;;;;31.13;17.42;;;4.10;82.80;;;;;;6191596;23;20728;-91
2022/01/10 10:05:27;;;;;;;33.70;17.67;;;4.10;82.80;;;;;;6193655;23;20239;-88
2022/01/10 10:07:53;;;;;;;40.07;17.93;;;4.20;82.60;;;;;;6207193;23;20403;-90
2022/01/10 10:10:21;;;;;;;33.72;17.23;;;4.20;82.20;;;;;;6193062;23;20614;-90
2022/01/10 10:12:49;;;;;;;34.42;17.70;;;4.10;82.20;;;;;;6191384;23;20551;-90
2022/01/10 10:15:18;;;;;;;36.95;16.92;;;4.30;82.50;;;;;;6191343;23;20253;-90
2022/01/10 10:17:45;;;;;;;42.03;17.48;;;4.30;82.00;;;;;;6192120;23;20160;-90
2022/01/10 10:20:22;;;;;;;33.63;16.67;;;4.20;82.50;;;;;;6192849;23;20167;-90
2022/01/10 10:22:50;;;;;;;34.60;15.82;;;4.30;82.80;;;;;;6227319;23;20164;-89
2022/01/10 10:25:17;;;;;;;35.88;15.05;;;4.30;81.80;;;;;;6191290;23;20163;-89
2022/01/10 10:27:46;;;;;;;28.50;16.67;;;4.50;81.50;;;;;;6192602;23;20157;-89
2022/01/10 10:30:16;;;;;;;28.77;15.30;;;4.60;81.10;;;;;;6223372;23;20637;-89
2022/01/10 10:32:41;;;;;;;28.45;15.70;;;4.80;80.80;;;;;;6197057;23;20145;-90
2022/01/10 10:35:09;;;;;;;30.00;15.90;;;4.60;80.00;;;;;;6192404;23;20164;-90
2022/01/10 10:37:43;;;;;;;42.55;18.50;;;4.70;80.10;;;;;;6191517;23;20236;-91
2022/01/10 10:40:11;;;;;;;30.55;17.17;;;4.90;80.00;;;;;;6191835;23;20148;-91
2022/01/10 10:42:45;;;;;;;35.22;16.35;;;4.80;79.50;;;;;;6192447;23;20176;-90
2022/01/10 10:45:14;;;;;;;33.65;17.10;;;4.90;79.90;;;;;;6191878;23;20163;-88
2022/01/10 10:47:44;;;;;;;30.15;14.88;;;4.90;79.60;;;;;;6192852;23;20157;-88
2022/01/10 10:50:10;;;;;;;39.92;16.88;;;4.80;79.50;;;;;;6193794;23;20181;-88
2022/01/10 10:52:38;;;;;;;28.40;15.45;;;4.80;79.60;;;;;;6193568;23;20149;-88
2022/01/10 10:55:12;;;;;;;26.00;15.07;;;4.80;79.60;;;;;;6194994;23;20158;-90
2022/01/10 10:57:39;;;;;;;29.52;15.68;;;5.20;79.80;;;;;;6191639;23;20174;-90
2022/01/10 11:00:10;;;;;;;34.00;15.25;;;5.30;79.40;;;;;;6218082;23;20150;-91
2022/01/10 11:02:35;;;;;;;27.83;14.05;;;5.10;79.10;;;;;;6193203;23;20203;-90
2022/01/10 11:05:05;;;;;;;28.27;14.50;;;5.10;79.20;;;;;;6195904;23;20161;-90
2022/01/10 11:07:34;;;;;;;25.42;14.23;;;5.00;79.10;;;;;;6194317;23;20431;-89
2022/01/10 11:10:01;;;;;;;32.13;16.77;;;5.10;79.60;;;;;;6193273;23;20663;-90
2022/01/10 11:12:28;;;;;;;29.02;14.60;;;5.00;79.50;;;;;;6218169;23;20198;-89
2022/01/10 11:14:56;;;;;;;32.63;16.88;;;4.90;79.70;;;;;;6191646;23;20153;-89
2022/01/10 11:17:22;;;;;;;26.75;14.77;;;4.90;80.10;;;;;;6170049;23;20185;-89
2022/01/10 11:20:10;;;;;;;28.83;13.70;;;5.10;80.20;;;;;;6194977;23;20161;-88
2022/01/10 11:22:41;;;;;;;31.05;15.15;;;5.00;79.60;;;;;;6196086;23;20162;-88
2022/01/10 11:25:22;;;;;;;31.02;15.25;;;5.30;79.80;;;;;;6208848;23;20161;-88
2022/01/10 11:27:49;;;;;;;28.90;13.90;;;5.40;79.40;;;;;;6194991;23;20152;-88
2022/01/10 11:30:35;;;;;;;30.80;14.40;;;5.60;79.40;;;;;;6195186;23;20689;-88
2022/01/10 11:33:10;;;;;;;37.22;14.60;;;6.00;79.00;;;;;;6195178;23;20196;-88
2022/01/10 11:35:41;;;;;;;23.58;12.48;;;6.10;77.80;;;;;;6222594;23;20168;-88
2022/01/10 11:38:28;;;;;;;28.45;13.95;;;5.90;77.00;;;;;;6214025;23;20153;-89
2022/01/10 11:41:02;;;;;;;28.25;12.77;;;5.70;76.70;;;;;;6200335;23;20165;-89
2022/01/10 11:43:56;;;;;;;26.42;14.13;;;5.90;76.90;;;;;;6196782;23;20576;-88
2022/01/10 11:46:24;;;;;;;27.80;13.70;;;6.20;76.90;;;;;;6197767;23;20184;-88
2022/01/10 11:48:51;;;;;;;22.85;12.80;;;6.30;76.20;;;;;;6193644;23;20232;-88
2022/01/10 11:51:20;;;;;;;22.10;11.82;;;6.10;75.90;;;;;;6194462;23;20196;-88
2022/01/10 11:53:49;;;;;;;35.80;14.65;;;6.20;75.80;;;;;;6199926;23;20153;-89
2022/01/10 11:56:24;;;;;;;29.63;13.93;;;5.80;75.50;;;;;;6197679;23;20181;-88
2022/01/10 11:59:18;;;;;;;29.75;14.05;;;5.80;76.30;;;;;;6194052;23;20326;-88
2022/01/10 12:01:48;;;;;;;29.33;13.13;;;5.70;76.40;;;;;;6220352;23;20248;-88
2022/01/10 12:04:14;;;;;;;33.08;16.45;;;6.10;76.70;;;;;;6202965;23;20579;-88
2022/01/10 12:06:41;;;;;;;40.10;18.15;;;6.20;77.00;;;;;;6193773;23;20220;-88
2022/01/10 12:09:07;;;;;;;39.85;18.60;;;6.30;77.00;;;;;;6194492;23;20149;-88
2022/01/10 12:11:33;;;;;;;41.30;19.65;;;6.40;76.70;;;;;;6196069;23;20531;-89
2022/01/10 12:14:00;;;;;;;39.70;19.38;;;6.40;76.40;;;;;;6193875;23;20157;-88
2022/01/10 12:16:27;;;;;;;42.65;20.50;;;6.40;76.00;;;;;;6202897;23;20181;-88
2022/01/10 12:18:53;;;;;;;46.30;21.85;;;6.60;75.40;;;;;;6197467;23;20163;-88
2022/01/10 12:21:20;;;;;;;42.40;21.48;;;6.40;74.90;;;;;;6193510;23;20164;-88
2022/01/10 12:23:47;;;;;;;56.45;25.35;;;6.40;75.00;;;;;;6193809;23;20229;-88
2022/01/10 12:26:13;;;;;;;47.75;23.58;;;6.30;75.00;;;;;;6193102;23;20177;-88
2022/01/10 12:28:40;;;;;;;47.45;20.30;;;6.20;75.10;;;;;;6192812;23;20161;-88
2022/01/10 12:31:06;;;;;;;49.45;21.23;;;6.00;75.30;;;;;;6193560;23;20191;-88
2022/01/10 12:33:33;;;;;;;34.67;18.88;;;6.00;75.50;;;;;;6195610;23;20154;-88
2022/01/10 12:36:02;;;;;;;42.25;19.80;;;6.00;75.90;;;;;;6197007;23;20177;-89
2022/01/10 12:38:28;;;;;;;44.45;21.02;;;5.90;75.00;;;;;;6195180;23;20173;-88
2022/01/10 12:40:54;;;;;;;37.67;18.20;;;5.20;76.10;;;;;;6194827;23;20285;-88
2022/01/10 12:43:20;;;;;;;39.70;18.60;;;4.70;77.90;;;;;;6193649;23;20388;-89